»·PEaware :: VRD638 KSFO-KSAN

VRD638 :: KSFO-KSAN

FLIGHT INFORMATION

Flight Status: Arrived
Operator:
Virgin America
More flights by this operator :: More flights under this callsign
Pilot: Pratham R. (19019)
Aircraft: AIRBUS A320
(A320)
More flights by this aircraft type
Origin: KSFO San Francisco Intl
United States
Destination: KSAN San Diego Intl-Lindbergh
United States
More flights between these airports :: More routes between these airports
Route: OFFSH2 MCKEY LAX COMIX2
File this flight plan on PilotEdge
Remarks: RMK / SIMBRIEF
Altitude:
(Current/Filed)
35,000ft
Speed:
(Current/Filed)
460kts
Departed: 07-Aug-19 03:52 PM
Arrived: 07-Aug-19 05:27 PM
Distance/Time
Traveled:
388nm/1:35
Distance/Time
To Go:
Arrived

Flight Plot

Page will automatically refresh every two minutes.

Flight plan parsing failed; only flown route is shown


Map Options




Map Legend


Flown Route
Filed Route
Departure Airport
Arrival Airport
Navaid (VOR, NDB)
Fix

Horizontal Profiles

Position Reports

Time Latitude Longitude Heading Altitude Ground
Speed
07-Aug-19 14:58 37.617856 -122.380643 257 32ft 0kts
07-Aug-19 14:59 37.617856 -122.380643 257 32ft 0kts
07-Aug-19 15:00 37.617856 -122.380643 257 32ft 0kts
07-Aug-19 15:01 37.617856 -122.380643 257 32ft 0kts
07-Aug-19 15:02 37.617856 -122.380643 257 32ft 0kts
07-Aug-19 15:03 37.617856 -122.380643 257 32ft 0kts
07-Aug-19 15:04 37.617856 -122.380643 257 32ft 0kts
07-Aug-19 15:05 37.617856 -122.380643 257 32ft 0kts
07-Aug-19 15:06 37.617856 -122.380643 257 32ft 0kts
07-Aug-19 15:07 37.617856 -122.380643 257 32ft 0kts
07-Aug-19 15:08 37.617856 -122.380643 257 32ft 0kts
07-Aug-19 15:09 37.617856 -122.380643 257 32ft 0kts
07-Aug-19 15:09 37.617856 -122.380643 257 32ft 0kts
07-Aug-19 15:11 37.617856 -122.380643 257 32ft 0kts
07-Aug-19 15:11 37.617856 -122.380643 257 32ft 0kts
07-Aug-19 15:12 37.617856 -122.380643 257 32ft 0kts
07-Aug-19 15:14 37.617856 -122.380643 257 32ft 0kts
07-Aug-19 15:14 37.617856 -122.380643 257 32ft 0kts
07-Aug-19 15:15 37.617856 -122.380643 257 32ft 0kts
07-Aug-19 15:17 37.617856 -122.380643 257 32ft 0kts
07-Aug-19 15:17 37.617856 -122.380643 257 32ft 0kts
07-Aug-19 15:18 37.617856 -122.380643 257 32ft 0kts
07-Aug-19 15:19 37.617856 -122.380643 257 32ft 0kts
07-Aug-19 15:20 37.617856 -122.380643 257 32ft 0kts
07-Aug-19 15:21 37.617856 -122.380643 257 32ft 0kts
07-Aug-19 15:22 37.617856 -122.380643 257 32ft 0kts
07-Aug-19 15:23 37.617856 -122.380643 257 32ft 0kts
07-Aug-19 15:24 37.617856 -122.380643 257 32ft 0kts
07-Aug-19 15:25 37.617856 -122.380643 257 32ft 0kts
07-Aug-19 15:26 37.617856 -122.380643 257 32ft 0kts
07-Aug-19 15:27 37.617856 -122.380643 257 32ft 0kts
07-Aug-19 15:28 37.617856 -122.380643 257 32ft 0kts
07-Aug-19 15:29 37.617856 -122.380643 257 32ft 0kts
07-Aug-19 15:30 37.617856 -122.380643 257 32ft 0kts
07-Aug-19 15:31 37.617856 -122.380643 257 32ft 0kts
07-Aug-19 15:32 37.617856 -122.380643 257 32ft 0kts
07-Aug-19 15:33 37.617856 -122.380643 257 32ft 0kts
07-Aug-19 15:34 37.617856 -122.380643 257 32ft 0kts
07-Aug-19 15:35 37.617856 -122.380643 257 32ft 0kts
07-Aug-19 15:36 37.617856 -122.380643 257 32ft 0kts
07-Aug-19 15:37 37.617856 -122.380643 257 32ft 0kts
07-Aug-19 15:38 37.617857 -122.380642 257 32ft 0kts
07-Aug-19 15:39 37.617948 -122.380132 257 32ft 2kts
07-Aug-19 15:40 37.618178 -122.379631 164 32ft 1kts
07-Aug-19 15:41 37.618257 -122.379677 156 32ft 0kts
07-Aug-19 15:42 37.618257 -122.379677 156 32ft 0kts
07-Aug-19 15:43 37.618257 -122.379677 156 32ft 0kts
07-Aug-19 15:44 37.618257 -122.379677 156 32ft 0kts
07-Aug-19 15:45 37.618257 -122.379677 156 32ft 0kts
07-Aug-19 15:46 37.617966 -122.379540 163 31ft 3kts
07-Aug-19 15:47 37.616557 -122.376766 96 26ft 16kts
07-Aug-19 15:48 37.614964 -122.369825 118 13ft 23kts
07-Aug-19 15:49 37.611612 -122.362960 118 9ft 29kts
07-Aug-19 15:50 37.610995 -122.359009 28 9ft 5kts
07-Aug-19 15:51 37.613639 -122.362989 296 12ft 87kts
07-Aug-19 15:52 37.637820 -122.402251 288 2253ft 181kts
07-Aug-19 15:53 37.662592 -122.473624 291 4462ft 262kts
07-Aug-19 15:54 37.644138 -122.552925 217 8349ft 270kts
07-Aug-19 15:55 37.583192 -122.613444 217 11274ft 312kts
07-Aug-19 15:56 37.511692 -122.685146 212 14019ft 340kts
07-Aug-19 15:57 37.420128 -122.688795 168 16777ft 353kts
07-Aug-19 15:58 37.349427 -122.670353 169 18642ft 361kts
07-Aug-19 15:59 37.235952 -122.641302 169 21231ft 374kts
07-Aug-19 16:00 37.132300 -122.614949 169 23268ft 384kts
07-Aug-19 16:01 37.027070 -122.588281 169 25141ft 392kts
07-Aug-19 16:02 36.920410 -122.561041 168 26838ft 399kts
07-Aug-19 16:03 36.811374 -122.532644 168 28332ft 408kts
07-Aug-19 16:04 36.699913 -122.503742 168 29692ft 416kts
07-Aug-19 16:05 36.585991 -122.474292 168 30917ft 423kts
07-Aug-19 16:06 36.472346 -122.444302 164 32500ft 417kts
07-Aug-19 16:07 36.377100 -122.366355 133 33873ft 424kts
07-Aug-19 16:08 36.302794 -122.257482 134 35045ft 422kts
07-Aug-19 16:09 36.227520 -122.147865 134 35085ft 419kts
07-Aug-19 16:10 36.152183 -122.038578 134 35086ft 420kts
07-Aug-19 16:11 36.076563 -121.929225 134 35086ft 420kts
07-Aug-19 16:12 36.001180 -121.820569 134 35083ft 420kts
07-Aug-19 16:13 35.925475 -121.711794 134 35083ft 420kts
07-Aug-19 16:14 35.849799 -121.603421 134 35059ft 421kts
07-Aug-19 16:15 35.773270 -121.494173 134 35016ft 422kts
07-Aug-19 16:16 35.696584 -121.385048 134 34990ft 422kts
07-Aug-19 16:17 35.620634 -121.277316 134 34991ft 422kts
07-Aug-19 16:18 35.543845 -121.168739 134 34990ft 421kts
07-Aug-19 16:19 35.469473 -121.058952 129 35036ft 420kts
07-Aug-19 16:20 35.403891 -120.942636 130 35047ft 412kts
07-Aug-19 16:21 35.339588 -120.829070 131 34987ft 406kts
07-Aug-19 16:22 35.276027 -120.717184 130 34970ft 405kts
07-Aug-19 16:23 35.212312 -120.605387 130 34978ft 406kts
07-Aug-19 16:24 35.148075 -120.493016 130 35015ft 407kts
07-Aug-19 16:25 35.083701 -120.380762 130 35040ft 408kts
07-Aug-19 16:26 35.019962 -120.269959 131 35049ft 408kts
07-Aug-19 16:27 34.955039 -120.157451 130 35029ft 409kts
07-Aug-19 16:28 34.889632 -120.044480 130 35007ft 411kts
07-Aug-19 16:29 34.824598 -119.932506 130 35023ft 414kts
07-Aug-19 16:30 34.758377 -119.818839 130 35047ft 415kts
07-Aug-19 16:31 34.691781 -119.704893 130 35056ft 414kts
07-Aug-19 16:32 34.625595 -119.592013 130 35031ft 412kts
07-Aug-19 16:33 34.559788 -119.480138 130 35018ft 412kts
07-Aug-19 16:34 34.493971 -119.368599 130 35011ft 411kts
07-Aug-19 16:35 34.433998 -119.267265 130 35009ft 411kts
07-Aug-19 16:36 34.370197 -119.159775 130 35014ft 411kts
07-Aug-19 16:37 34.304618 -119.049622 130 35018ft 411kts
07-Aug-19 16:38 34.239429 -118.940454 131 35034ft 410kts
07-Aug-19 16:39 34.174878 -118.832672 132 35052ft 407kts
07-Aug-19 16:40 34.111854 -118.727757 132 35030ft 404kts
07-Aug-19 16:41 34.047264 -118.620565 132 35000ft 403kts
07-Aug-19 16:42 33.983834 -118.515608 132 34996ft 403kts
07-Aug-19 16:43 33.920878 -118.416062 138 35010ft 399kts
07-Aug-19 16:44 33.859120 -118.336005 138 33333ft 397kts
07-Aug-19 16:45 33.792015 -118.249277 138 30993ft 398kts
07-Aug-19 16:46 33.722638 -118.158467 136 28815ft 391kts
07-Aug-19 16:47 33.657486 -118.072918 137 27044ft 384kts
07-Aug-19 16:48 33.584565 -117.977469 137 25031ft 374kts
07-Aug-19 16:49 33.508237 -117.883991 140 22937ft 363kts
07-Aug-19 16:50 33.430542 -117.794816 142 20884ft 355kts
07-Aug-19 16:51 33.355864 -117.715015 141 18880ft 347kts
07-Aug-19 16:52 33.285103 -117.639531 141 16943ft 340kts
07-Aug-19 16:53 33.215222 -117.565472 141 14999ft 334kts
07-Aug-19 16:54 33.147188 -117.493950 141 13085ft 328kts
07-Aug-19 16:55 33.074389 -117.431172 146 11175ft 321kts
07-Aug-19 16:56 33.005613 -117.373837 148 10236ft 279kts
07-Aug-19 16:57 32.940411 -117.329842 152 8530ft 260kts
07-Aug-19 16:58 32.880442 -117.289492 152 6471ft 253kts
07-Aug-19 16:59 32.844551 -117.226686 102 5370ft 240kts
07-Aug-19 17:00 32.833207 -117.152161 102 5009ft 235kts
07-Aug-19 17:01 32.821851 -117.076933 102 5001ft 234kts
07-Aug-19 17:02 32.810206 -117.001963 101 4082ft 233kts
07-Aug-19 17:03 32.792711 -116.928946 140 4001ft 231kts
07-Aug-19 17:05 32.735351 -116.928017 192 4008ft 212kts
07-Aug-19 17:06 32.690224 -116.960354 269 4019ft 210kts
07-Aug-19 17:07 32.702994 -117.026935 282 3882ft 207kts
07-Aug-19 17:08 32.717028 -117.092045 282 3025ft 217kts
07-Aug-19 17:09 32.731707 -117.159636 282 3746ft 230kts
07-Aug-19 17:10 32.750257 -117.234963 304 5005ft 247kts
07-Aug-19 17:11 32.809097 -117.230034 62 5010ft 261kts
07-Aug-19 17:12 32.811437 -117.148024 102 5010ft 246kts
07-Aug-19 17:13 32.799637 -117.072658 102 5006ft 235kts
07-Aug-19 17:14 32.787693 -116.997262 102 5005ft 236kts
07-Aug-19 17:15 32.775179 -116.920822 102 5004ft 237kts
07-Aug-19 17:16 32.762190 -116.843742 102 5005ft 237kts
07-Aug-19 17:17 32.721442 -116.799797 202 5015ft 226kts
07-Aug-19 17:18 32.672295 -116.842251 248 5020ft 223kts
07-Aug-19 17:19 32.667377 -116.913116 282 5016ft 224kts
07-Aug-19 17:20 32.682382 -116.977591 284 3878ft 220kts
07-Aug-19 17:21 32.694190 -117.026691 284 2865ft 211kts
07-Aug-19 17:22 32.704170 -117.066593 286 2104ft 186kts
07-Aug-19 17:23 32.712374 -117.102631 281 1229ft 164kts
07-Aug-19 17:24 32.719898 -117.134389 285 1112ft 154kts
07-Aug-19 17:24 32.726194 -117.159304 282 540ft 136kts
07-Aug-19 17:26 32.733749 -117.190537 287 23ft 83kts
07-Aug-19 17:27 32.734138 -117.195244 248 22ft 7kts
07-Aug-19 17:27 32.734655 -117.198491 286 19ft 9kts
07-Aug-19 17:28 32.733950 -117.200203 260 19ft 2kts
07-Aug-19 17:30 32.733907 -117.200491 259 19ft 0kts
07-Aug-19 17:30 32.733907 -117.200491 259 19ft 0kts
07-Aug-19 17:31 32.733907 -117.200491 259 19ft 0kts
07-Aug-19 17:33 32.733907 -117.200491 259 19ft 0kts
07-Aug-19 17:33 32.733907 -117.200491 259 19ft 0kts
07-Aug-19 17:34 32.733907 -117.200491 259 19ft 0kts
07-Aug-19 17:35 32.733907 -117.200491 259 19ft 0kts
07-Aug-19 17:36 32.733907 -117.200491 259 19ft 0kts
07-Aug-19 17:37 32.733907 -117.200491 259 19ft 0kts
07-Aug-19 17:38 32.733907 -117.200491 259 19ft 0kts
07-Aug-19 17:39 32.733907 -117.200491 259 19ft 0kts
07-Aug-19 17:40 32.733907 -117.200491 259 19ft 0kts

Navigation Log

Ident Type
Flight plan parsing failed, navigation log unavailable